Monday, January 21, 2019, 5:52 PM EST
Back to Local

KGTB, Fort Drum / Wheeler-sack U. S. Army Airfield

Location: Fort Drum, NY, United States Lat: 44.05
Local Time: 5:52 PM EST (22:52 GMT) Lon: -75.733
Time Zone: US/Eastern Elev: 679 ft

Show me the last for .
Show Decoded

2019-01-21 16:56 METAR KGTB 212156Z AUTO 28006KT 10SM CLR M18/M28 A3027 RMK AO2 SLP272 T11771278
                 =
2019-01-21 15:56 METAR KGTB 212056Z AUTO 28006KT 10SM CLR M17/M28 A3024 RMK AO2 SLP262 T11711278
                 52023 =
2019-01-21 14:56 METAR KGTB 211956Z AUTO 31011G16KT 10SM CLR M18/M28 A3022 RMK AO2 SLP255
                 T11771284 =
2019-01-21 13:56 METAR KGTB 211856Z 31012G18KT 10SM CLR M18/M28 A3019 RMK AO2A SLP245 T11851283 =
2019-01-21 12:56 METAR KGTB 211756Z 32012KT 10SM CLR M20/M30 A3017 RMK AO2A SLP238 60000 4/014
                 T12011303 11200 21245 51015 =
2019-01-21 11:56 METAR KGTB 211656Z AUTO 30011KT 10SM FEW065 FEW080 M21/M30 A3017 RMK AO2
                 SNE06DZB06E15 SLP239 P0000 T12151304 =
2019-01-21 11:25 METAR KGTB 211625Z AUTO 31011G15KT 10SM SCT022 SCT070 M22/M30 A3016 RMK AO2
                 SNE06DZB06E15 SLP236 =
2019-01-21 11:15 METAR KGTB 211615Z AUTO 31008KT 10SM BKN029 BKN070 M23/M29 A3016 RMK AO2
                 SNE06DZB06E15 CIG 029V034 CIG 017 RWY21 SLP236 =
2019-01-21 11:06 METAR KGTB 211606Z AUTO 31012KT 5SM BLSN OVC034 M23/M28 A3016 RMK AO2 SLP236 =
2019-01-21 10:56 METAR KGTB 211556Z AUTO 31013KT 2 1/2SM BLSN OVC041 M23/M28 A3016 RMK AO2 VIS 2
                 1/2V3 SLP236 P0000 T12291281 =
2019-01-21 10:46 METAR KGTB 211546Z AUTO 32011KT 3SM BLSN OVC043 M23/M28 A3015 RMK AO2 SLP233 =
2019-01-21 10:36 METAR KGTB 211536Z AUTO 31010KT 2 1/4SM BLSN OVC041 M23/M28 A3015 RMK AO2 VIS 2
                 1/4V2 3/4 SLP233 =
2019-01-21 10:26 METAR KGTB 211526Z AUTO 32013KT 2 3/4SM BLSN OVC043 M23/M28 A3014 RMK AO2 VIS 2
                 1/2V3 SLP229 =
2019-01-21 10:16 METAR KGTB 211516Z AUTO 32010G18KT 2 1/2SM BLSN OVC043 M23/M28 A3014 RMK AO2 VIS
                 2 1/2V3 SLP229 =
2019-01-21 10:06 METAR KGTB 211506Z AUTO 32013KT 4SM BLSN OVC040 M23/M28 A3013 RMK AO2 SLP226 =
2019-01-21 09:56 METAR KGTB 211456Z AUTO 31010KT 2 1/2SM BLSN OVC036 M23/M28 A3013 RMK AO2 VIS 1
                 7/8V2 1/2 VIS 2 RWY33 SLP226 P0000 60000 T12341281 52032 =
2019-01-21 09:46 METAR KGTB 211446Z AUTO 31010KT 2SM BLSN OVC036 M23/M28 A3012 RMK AO2 VIS 2V2
                 3/4 SLP222 =
2019-01-21 09:36 METAR KGTB 211436Z AUTO 32010KT 2 3/4SM BLSN OVC037 M23/M28 A3012 RMK AO2 SLP222
                 =
2019-01-21 09:16 METAR KGTB 211416Z AUTO 32010G16KT 3SM BLSN OVC039 M24/M28 A3011 RMK AO2 VIS 2
                 1/2 RWY33 SLP219 =
2019-01-21 09:06 METAR KGTB 211406Z AUTO 31008KT 2 1/2SM -SN OVC039 M24/M28 A3010 RMK AO2 SLP216
                 =
2019-01-21 08:56 METAR KGTB 211356Z AUTO 32007KT 2 3/4SM BLSN OVC039 M24/M28 A3009 RMK AO2 VIS 2
                 1/2V3 SLP213 P0000 T12391285 =
2019-01-21 08:46 METAR KGTB 211346Z AUTO 31010G15KT 3SM BLSN OVC039 M24/M28 A3009 RMK AO2 SLP212
                 =
2019-01-21 08:36 METAR KGTB 211336Z AUTO 31008KT 2 3/4SM -SN OVC039 M24/M28 A3009 RMK AO2 VIS 2
                 1/4V2 3/4 SLP212 =
2019-01-21 08:26 METAR KGTB 211326Z AUTO 31009KT 2 1/2SM BLSN OVC039 M24/M28 A3008 RMK AO2 VIS 2
                 1/2V3 SLP208 =
2019-01-21 08:16 METAR KGTB 211316Z AUTO 30008KT 3SM -SN OVC037 M24/M28 A3007 RMK AO2 SLP205 =
2019-01-21 08:06 METAR KGTB 211306Z AUTO 31008KT 2 3/4SM -SN OVC032 M24/M28 A3006 RMK AO2 VIS 2
                 1/2V3 SLP202 =
2019-01-21 07:56 METAR KGTB 211256Z AUTO 32010KT 2 3/4SM BLSN OVC032 M24/M28 A3006 RMK AO2 VIS 1
                 3/4V2 3/4 SLP202 P0000 T12441285 =
2019-01-21 07:46 METAR KGTB 211246Z AUTO 31007KT 1 5/8SM -SN OVC028 M24/M28 A3005 RMK AO2 CIG
                 028V034 CIG 016 RWY21 SLP198 =
2019-01-21 07:26 METAR KGTB 211226Z AUTO 31009KT 1 5/8SM -SN OVC036 M24/M28 A3004 RMK AO2 VIS 1
                 5/8V6 SLP195 =
2019-01-21 06:56 METAR KGTB 211156Z COR AUTO 31007KT 5SM -SN OVC034 M24/M29 A3003 RMK AO2 SLP191
                 P0000 60000 4/014 T12451286 11230 21246 52020 COR 1157 =
2019-01-21 05:56 METAR KGTB 211056Z AUTO 31008KT 8SM -SN FEW005 M25/M29 A3000 RMK AO2 SLP181
                 P0000 T12461289 =
2019-01-21 05:37 METAR KGTB 211037Z AUTO 31008KT 4SM -SN FEW005 M24/M28 A3000 RMK AO2 SLP181 =
2019-01-21 05:06 METAR KGTB 211006Z AUTO 31009KT 3SM BLSN OVC033 M24/M28 A2999 RMK AO2 SLP177 =
2019-01-21 04:56 METAR KGTB 210956Z AUTO 31009KT 2 3/4SM -SN OVC037 M24/M28 A2999 RMK AO2 VIS 2
                 1/2V3 SLP177 P0000 T12441284 =
2019-01-21 04:55 METAR KGTB 210955Z AUTO 31009KT 2 3/4SM -SN OVC037 M24/M28 A2999 RMK AO2 VIS 2
                 1/2V3 SLP177 =
2019-01-21 04:45 METAR KGTB 210945Z AUTO 32008KT 2 1/2SM BLSN FEW003 M24/M28 A2998 RMK AO2 VIS 2
                 1/2V4 SLP174 =
2019-01-21 04:35 METAR KGTB 210935Z AUTO 31010KT 4SM -SN FEW005 FEW028 M24/M28 A2998 RMK AO2
                 SLP174 =
2019-01-21 03:56 METAR KGTB 210856Z AUTO 33009KT 3SM BLSN OVC034 M24/M28 A2997 RMK AO2 SLP170
                 P0000 60000 T12421285 52020 =
2019-01-21 02:56 METAR KGTB 210756Z AUTO 32009KT 4SM -SN OVC038 M24/M28 A2996 RMK AO2
                 DZB0657E02SNB02 SLP167 P0000 T12391281 =
2019-01-21 02:14 METAR KGTB 210714Z AUTO 32007KT 9SM -SN FEW005 OVC048 M24/M28 A2994 RMK AO2
                 DZB0657E02SNB02 SLP160 =
2019-01-21 01:57 METAR KGTB 210657Z AUTO 34009KT 10SM -DZ FEW049 OVC055 M24/M29 A2993 RMK AO2
                 DZB57 SLP157 =
2019-01-21 01:56 METAR KGTB 210656Z AUTO 34012KT 10SM OVC055 M24/M29 A2993 RMK AO2
                 SNE14SNB14E36SNB38E43 SLP157 P0000 T12361286 =
2019-01-21 01:43 METAR KGTB 210643Z AUTO 33008KT 10SM OVC035 M24/M28 A2993 RMK AO2
                 SNE14SNB14E36SNB38E43 SLP157 =
2019-01-21 01:38 METAR KGTB 210638Z AUTO 33009KT 10SM -SN OVC031 M23/M28 A2992 RMK AO2
                 SNE14SNB14E36SNB38 SLP152 =
2019-01-21 01:36 METAR KGTB 210636Z AUTO 33012KT 9SM OVC031 M23/M28 A2992 RMK AO2 SNE14SNB14E36
                 SLP152 =
2019-01-21 01:25 METAR KGTB 210625Z AUTO 32009KT 7SM -SN OVC024 M23/M28 A2992 RMK AO2 SNE14SNB14
                 CIG 024V034 SLP152 =
2019-01-21 01:15 METAR KGTB 210615Z AUTO 33008KT 7SM -SN OVC032 M23/M28 A2992 RMK AO2 SNE14SNB14
                 SLP152
2019-01-21 01:14 METAR KGTB 210614Z AUTO 32009KT 7SM OVC032 M23/M28 A2992 RMK AO2 SNE14 SLP152 =
2019-01-21 00:56 METAR KGTB 210556Z COR AUTO 32009KT 4SM -SN OVC035 M23/M27 A2991 RMK AO2 SLP149
                 P0000 60000 4/014 T12301272 11200 21230 52012 COR 0558 =
2019-01-21 00:46 METAR KGTB 210546Z AUTO 32010KT 2 3/4SM BLSN OVC041 M23/M27 A2991 RMK AO2 VIS 2
                 3/4V4 SLP149 =
2019-01-20 23:56 METAR KGTB 210456Z AUTO 32009KT 4SM BLSN OVC033 M23/M27 A2990 RMK AO2
                 SNE13SNB17E32SNB36 SLP146 P0000 T12261271 411691226 =
2019-01-20 23:36 METAR KGTB 210436Z AUTO 32013KT 6SM BLSN OVC035 M22/M27 A2990 RMK AO2
                 SNE13SNB17E32SNB36 SLP146 =
2019-01-20 23:32 METAR KGTB 210432Z AUTO 32011KT 7SM FEW005 M22/M26 A2990 RMK AO2 SNE13SNB17E32
                 SLP146 =
2019-01-20 23:17 METAR KGTB 210417Z AUTO 32010KT 4SM -SN FEW005 M22/M26 A2989 RMK AO2 SNE13SNB17
                 SLP142 =
2019-01-20 23:13 METAR KGTB 210413Z AUTO 31009KT 4SM HZ FEW005 M22/M26 A2989 RMK AO2 SNE13 SLP142
                 =
2019-01-20 22:57 METAR KGTB 210357Z AUTO 32007KT 5SM -SN FEW006 M22/M26 A2989 RMK AO2 SLP142 =
2019-01-20 22:56 METAR KGTB 210356Z AUTO 32007KT 6SM -SN OVC033 M22/M26 A2989 RMK AO2
                 SNE14SNB15E21SNB24E27DZB27E37SNB37 SLP142 P0000 T12221263 =
2019-01-20 22:24 METAR KGTB 210324Z AUTO 33009KT 10SM -SN FEW008 SCT040 OVC070 M22/M26 A2988 RMK
                 AO2 SNE14SNB15E21SNB24 SLP139 =
2019-01-20 22:21 METAR KGTB 210321Z AUTO 32012KT 10SM FEW008 SCT040 OVC070 M22/M26 A2988 RMK AO2
                 SNE14SNB15E21 SLP139 =
2019-01-20 22:16 METAR KGTB 210316Z AUTO 32010KT 10SM -SN FEW008 SCT042 OVC070 M22/M26 A2988 RMK
                 AO2 SNE14SNB15 SLP139 =
2019-01-20 22:15 METAR KGTB 210315Z AUTO 32010KT 10SM FEW008 SCT042 OVC070 M22/M26 A2988 RMK AO2
                 SNE14 SLP139 =
2019-01-20 22:14 METAR KGTB 210314Z AUTO 32010KT 10SM SCT042 OVC070 M22/M26 A2988 RMK AO2 SNE14
                 SLP139 =
2019-01-20 21:56 METAR KGTB 210256Z AUTO 32009KT 10SM -SN FEW025 BKN040 OVC070 M22/M26 A2988 RMK
                 AO2 DZE0157SNB0157E03SNB10E40SNB41 SLP139 P0000 60000 T12191260 52017 =
2019-01-20 21:41 METAR KGTB 210241Z AUTO 32009KT 10SM -SN BKN030 OVC065 M22/M26 A2987 RMK AO2
                 DZE0157SNB0157E03SNB10E40SNB41 SLP136 =
2019-01-20 21:40 METAR KGTB 210240Z AUTO 32010KT 10SM BKN030 OVC065 M22/M26 A2987 RMK AO2
                 DZE0157SNB0157E03SNB10E40 SLP136 =
2019-01-20 21:10 METAR KGTB 210210Z AUTO 32009G17KT 7SM -SN BKN025 BKN041 OVC060 M21/M26 A2986
                 RMK AO2 DZE0157SNB0157E03SNB10 CIG 025V041 SLP132 =
2019-01-20 21:03 METAR KGTB 210203Z AUTO 32011KT 8SM SCT029 BKN041 OVC060 M21/M25 A2986 RMK AO2
                 DZE0157SNB0157E03 SLP132 =
2019-01-20 20:56 METAR KGTB 210156Z AUTO 33009KT 10SM -DZ FEW020 SCT032 BKN041 OVC060 M21/M25
                 A2985 RMK AO2 DZB0056E03SNB05E14DZB14E30DZB55 SLP129 P0000 T12111255 =
2019-01-20 20:55 METAR KGTB 210155Z AUTO 33010KT 10SM -DZ FEW011 SCT020 BKN041 OVC060 M21/M25
                 A2986 RMK AO2 DZB0056E03SNB05E14DZB14E30DZB55 SLP132 =
2019-01-20 20:50 METAR KGTB 210150Z AUTO 33011G18KT 10SM FEW011 SCT020 BKN041 OVC060 M21/M25
                 A2986 RMK AO2 DZB0056E03SNB05E14DZB14E30 SLP132 =
2019-01-20 20:40 METAR KGTB 210140Z AUTO 33011G17KT 10SM BKN020 OVC041 M21/M25 A2986 RMK AO2
                 DZB0056E03SNB05E14DZB14E30 CIG 020V032 BKN V FEW SLP132 =
2019-01-20 20:30 METAR KGTB 210130Z AUTO 33009KT 10SM FEW020 BKN032 OVC040 M21/M25 A2986 RMK AO2
                 DZB0056E03SNB05E14DZB14E30 SLP133 =
2019-01-20 20:05 METAR KGTB 210105Z AUTO 33009KT 10SM -SN FEW043 BKN055 OVC075 M20/M25 A2985 RMK
                 AO2 DZB0056E03SNB05 SLP129 =
2019-01-20 20:03 METAR KGTB 210103Z AUTO 33010KT 10SM FEW043 BKN065 OVC075 M20/M25 A2985 RMK AO2
                 DZB0056E03 SLP129 =
2019-01-20 19:57 METAR KGTB 210057Z AUTO 33011KT 10SM -DZ FEW043 OVC075 M20/M25 A2985 RMK AO2
                 DZB56 SLP129 =
2019-01-20 19:56 METAR KGTB 210056Z AUTO 33009KT 10SM FEW043 OVC075 M20/M25 A2985 RMK AO2
                 SNB03E27SNB29E34DZB34E54 SLP129 P0000 T12021246 =
2019-01-20 19:54 METAR KGTB 210054Z AUTO 33010KT 10SM FEW043 OVC075 M20/M24 A2985 RMK AO2
                 SNB03E27SNB29E34DZB34E54 SLP129 =
2019-01-20 19:29 METAR KGTB 210029Z AUTO 33008KT 10SM -SN OVC070 M20/M24 A2984 RMK AO2
                 SNB03E27SNB29 SLP125 =
2019-01-20 19:27 METAR KGTB 210027Z AUTO 33009KT 9SM OVC070 M20/M24 A2984 RMK AO2 SNB03E27 SLP125
                 =
2019-01-20 19:03 METAR KGTB 210003Z AUTO 32006KT 10SM -SN OVC065 M20/M24 A2983 RMK AO2 SNB03
                 SLP122 =
2019-01-20 18:56 METAR KGTB 202356Z COR 33006KT 10SM OVC065 M20/M24 A2983 RMK AO2 SNE31 SLP122
                 P0000 60000 T12011239 4/014 11172 21204 52025 COR 0003 =
2019-01-20 18:31 METAR KGTB 202331Z AUTO 32007KT 10SM BKN046 OVC065 M20/M24 A2982 RMK AO2 SNE31
                 SLP118 =
2019-01-20 18:16 METAR KGTB 202316Z AUTO 31007KT 9SM -SN SCT007 OVC048 M20/M24 A2982 RMK AO2
                 SLP118 =
2019-01-20 17:56 METAR KGTB 202256Z AUTO 31006KT 8SM -SN BKN006 M20/M24 A2981 RMK AO2 DZE21SNB32
                 SLP116 P0000 T11981236 =
2019-01-20 17:53 METAR KGTB 202253Z AUTO 31006KT 7SM -SN BKN006 BKN085 M20/M23 A2981 RMK AO2
                 DZE21SNB32 SLP116 =

Support USWX by starting your Amazon purchase here.